Time;durP1;ratioP1;P1;durP2;ratioP2;P2;SDS_P1;SDS_P2;PMS_P1;PMS_P2;Temp;Humidity;BMP_temperature;BMP_pressure;BME280_temperature;BME280_humidity;BME280_pressure;Samples;Min_cycle;Max_cycle;Signal;HPM_P1;HPM_P2
2022/02/24 00:00:15;;;;;;;3.75;3.00;;;;;;;2.97;50.22;94331.44;4996459;28;20053;-77
2022/02/24 00:02:40;;;;;;;5.38;2.90;;;;;;;2.86;49.98;94306.13;5004837;28;20520;-78
2022/02/24 00:05:07;;;;;;;5.40;3.08;;;;;;;3.05;50.28;94340.66;5018232;28;20041;-76
2022/02/24 00:07:32;;;;;;;5.97;3.17;;;;;;;3.19;50.27;94332.09;5014871;28;20032;-77
2022/02/24 00:09:57;;;;;;;4.03;2.47;;;;;;;3.42;49.62;94328.28;4999328;28;20034;-78
2022/02/24 00:12:23;;;;;;;7.55;3.03;;;;;;;3.61;49.42;94349.69;5005720;28;20058;-77
2022/02/24 00:14:49;;;;;;;3.55;3.05;;;;;;;3.64;49.40;94328.91;5006102;28;20396;-79
2022/02/24 00:17:14;;;;;;;9.95;3.00;;;;;;;3.81;49.11;94337.41;5005565;28;20427;-78
2022/02/24 00:19:40;;;;;;;12.02;4.03;;;;;;;4.02;48.71;94348.75;5010063;28;20041;-78
2022/02/24 00:22:05;;;;;;;4.18;3.00;;;;;;;3.90;48.35;94321.91;5005332;28;20305;-78
2022/02/24 00:24:31;;;;;;;5.72;3.00;;;;;;;4.03;47.84;94326.66;5003172;28;20033;-78
2022/02/24 00:26:56;;;;;;;4.32;2.78;;;;;;;4.22;47.67;94343.56;5022991;28;20112;-77
2022/02/24 00:29:22;;;;;;;5.60;2.75;;;;;;;4.26;47.75;94352.50;5002439;28;20094;-77
2022/02/24 00:31:48;;;;;;;6.28;3.38;;;;;;;4.40;47.67;94346.78;5002302;28;20109;-77
2022/02/24 00:34:15;;;;;;;5.70;2.95;;;;;;;4.22;47.36;94340.94;5013575;28;20038;-78
2022/02/24 00:36:41;;;;;;;2.60;2.40;;;;;;;4.22;47.26;94325.13;4999143;28;20776;-77
2022/02/24 00:39:06;;;;;;;12.98;3.30;;;;;;;4.24;47.27;94316.97;5009901;28;20165;-78
2022/02/24 00:41:32;;;;;;;8.38;2.40;;;;;;;4.28;47.25;94323.31;5003466;28;20436;-77
2022/02/24 00:43:58;;;;;;;5.65;3.35;;;;;;;4.34;46.58;94310.97;5003460;28;21176;-78
2022/02/24 00:46:23;;;;;;;3.65;2.78;;;;;;;4.26;46.98;94331.44;5008357;28;20090;-78
2022/02/24 00:48:48;;;;;;;2.80;2.50;;;;;;;3.99;47.42;94309.81;5004882;28;20523;-77
2022/02/24 00:51:14;;;;;;;5.35;2.95;;;;;;;3.83;47.66;94305.56;5003379;28;20052;-78
2022/02/24 00:53:41;;;;;;;7.75;3.17;;;;;;;3.64;48.14;94312.31;5003490;28;20115;-79
2022/02/24 00:56:08;;;;;;;7.57;3.17;;;;;;;3.54;48.42;94328.06;5008639;28;20032;-78
2022/02/24 00:58:33;;;;;;;10.73;3.33;;;;;;;3.39;48.99;94328.78;5008047;28;20018;-78
2022/02/24 01:00:59;;;;;;;4.38;2.63;;;;;;;3.24;49.30;94340.00;5007144;28;21678;-77
2022/02/24 01:03:24;;;;;;;6.93;3.47;;;;;;;2.98;49.88;94335.66;5003873;28;20048;-78
2022/02/24 01:05:50;;;;;;;4.40;2.72;;;;;;;2.68;50.16;94306.53;5008731;28;20416;-77
2022/02/24 01:08:15;;;;;;;5.65;3.42;;;;;;;2.64;50.54;94300.19;4996579;28;20039;-77
2022/02/24 01:10:41;;;;;;;9.75;3.13;;;;;;;2.78;50.51;94331.03;5012121;28;20504;-78
2022/02/24 01:13:06;;;;;;;2.38;2.17;;;;;;;2.56;50.77;94316.41;5007568;28;20033;-78
2022/02/24 01:15:32;;;;;;;8.18;3.17;;;;;;;2.53;50.88;94329.00;5002204;28;20041;-78
2022/02/24 01:17:57;;;;;;;4.80;3.17;;;;;;;2.53;50.88;94331.63;5006945;28;20377;-78
2022/02/24 01:20:22;;;;;;;6.63;3.72;;;;;;;2.26;51.45;94328.22;5002493;28;20472;-77
2022/02/24 01:22:49;;;;;;;4.35;2.67;;;;;;;2.28;51.53;94318.28;5006464;28;20029;-78
2022/02/24 01:25:18;;;;;;;6.85;3.03;;;;;;;2.15;51.53;94300.31;5002590;28;20142;-77
2022/02/24 01:27:44;;;;;;;3.65;2.45;;;;;;;2.18;51.75;94320.81;5007398;28;20049;-78
2022/02/24 01:30:10;;;;;;;6.40;2.90;;;;;;;2.09;52.01;94306.56;5012874;28;20488;-78
2022/02/24 01:32:36;;;;;;;4.28;3.00;;;;;;;2.33;51.83;94333.28;5000766;28;20043;-78
2022/02/24 01:35:01;;;;;;;4.03;2.78;;;;;;;2.29;51.40;94306.75;5002729;28;20022;-78
2022/02/24 01:37:27;;;;;;;4.18;3.20;;;;;;;2.33;51.28;94339.31;5003073;28;20023;-76
2022/02/24 01:39:53;;;;;;;5.43;3.03;;;;;;;2.15;51.14;94300.31;5004128;28;20392;-77
2022/02/24 01:42:19;;;;;;;3.40;2.60;;;;;;;2.28;51.05;94326.16;5002291;28;20046;-78
2022/02/24 01:44:46;;;;;;;3.70;2.58;;;;;;;2.10;51.00;94302.91;5018112;28;20396;-78
2022/02/24 01:47:12;;;;;;;5.10;2.80;;;;;;;1.87;51.28;94292.69;5000715;28;21282;-78
2022/02/24 01:49:37;;;;;;;6.18;2.33;;;;;;;1.82;51.81;94317.00;5010449;28;20491;-79
2022/02/24 01:52:04;;;;;;;7.15;3.63;;;;;;;1.82;51.84;94321.44;4996312;28;20068;-78
2022/02/24 01:54:30;;;;;;;11.98;3.50;;;;;;;1.65;51.83;94293.50;5007375;28;20034;-77
2022/02/24 01:56:56;;;;;;;5.40;2.60;;;;;;;1.69;52.07;94296.41;5005267;28;20044;-78
2022/02/24 01:59:22;;;;;;;6.65;2.90;;;;;;;1.93;51.75;94317.94;5004759;28;20034;-78
2022/02/24 02:01:47;;;;;;;2.80;2.60;;;;;;;1.73;51.62;94280.97;5004598;28;20099;-77
2022/02/24 02:04:13;;;;;;;2.80;2.15;;;;;;;1.74;51.43;94279.94;5018145;28;20032;-75
2022/02/24 02:06:39;;;;;;;4.18;2.33;;;;;;;2.00;51.31;94319.34;5006443;28;20527;-76
2022/02/24 02:09:05;;;;;;;3.50;2.92;;;;;;;2.02;51.25;94319.88;4998501;28;20041;-77
2022/02/24 02:11:30;;;;;;;3.70;2.55;;;;;;;2.05;51.17;94318.59;5000929;28;20041;-76
2022/02/24 02:13:56;;;;;;;2.47;2.08;;;;;;;1.94;51.48;94319.53;5012385;28;20447;-75
2022/02/24 02:16:21;;;;;;;2.72;2.17;;;;;;;1.65;51.65;94306.59;5011115;28;20112;-76
2022/02/24 02:18:47;;;;;;;4.43;2.15;;;;;;;1.45;52.30;94316.06;4998979;28;20053;-76
2022/02/24 02:21:12;;;;;;;8.38;2.90;;;;;;;1.32;52.75;94317.22;4998659;28;20377;-75
2022/02/24 02:23:37;;;;;;;4.20;2.70;;;;;;;1.21;52.67;94291.91;5007504;28;20152;-76
2022/02/24 02:26:03;;;;;;;6.43;2.83;;;;;;;1.47;52.69;94330.47;4999829;28;20587;-74
2022/02/24 02:28:28;;;;;;;6.95;2.55;;;;;;;1.38;52.82;94304.94;5002439;28;20046;-76
2022/02/24 02:30:54;;;;;;;3.53;2.13;;;;;;;1.38;52.25;94295.25;5008609;28;20044;-77
2022/02/24 02:33:19;;;;;;;4.07;2.35;;;;;;;1.63;52.15;94319.16;4999008;28;20603;-76
2022/02/24 02:35:44;;;;;;;4.22;3.33;;;;;;;1.68;52.16;94332.31;5007877;28;20041;-76
2022/02/24 02:38:10;;;;;;;2.47;1.85;;;;;;;1.80;51.40;94334.81;4994566;28;20029;-76
2022/02/24 02:40:37;;;;;;;3.53;2.40;;;;;;;1.78;51.36;94341.34;5004219;28;20071;-76
2022/02/24 02:43:11;;;;;;;4.18;2.50;;;;;;;1.80;51.04;94339.28;5011903;28;20420;-77
2022/02/24 02:45:38;;;;;;;2.42;2.22;;;;;;;1.71;50.92;94340.75;5018248;28;20065;-77
2022/02/24 02:48:05;;;;;;;2.90;2.58;;;;;;;1.61;51.11;94347.47;4992987;28;20065;-75
2022/02/24 02:50:32;;;;;;;3.80;2.63;;;;;;;1.39;51.28;94322.25;4985257;28;20042;-75
2022/02/24 02:53:02;;;;;;;6.85;2.58;;;;;;;1.55;50.96;94327.44;4990768;28;20022;-76
2022/02/24 02:55:27;;;;;;;3.47;2.03;;;;;;;1.70;50.79;94350.44;4989191;28;20631;-76
2022/02/24 02:57:52;;;;;;;2.38;1.90;;;;;;;1.54;50.96;94331.09;4998027;28;20052;-74
2022/02/24 03:00:18;;;;;;;2.90;2.42;;;;;;;1.57;50.52;94314.88;5000096;28;20041;-76
2022/02/24 03:02:43;;;;;;;2.72;1.60;;;;;;;1.67;50.03;94329.94;5006338;28;20532;-75
2022/02/24 03:05:10;;;;;;;4.82;2.30;;;;;;;1.80;50.04;94355.81;5004795;28;20390;-77
2022/02/24 03:07:35;;;;;;;2.97;2.47;;;;;;;2.09;49.62;94365.06;5005530;28;20128;-77
2022/02/24 03:10:03;;;;;;;2.80;2.42;;;;;;;1.86;49.20;94319.94;5001899;28;20387;-76
2022/02/24 03:12:28;;;;;;;2.80;2.42;;;;;;;2.08;49.27;94363.50;4997831;28;20033;-75
2022/02/24 03:14:54;;;;;;;4.50;2.63;;;;;;;2.12;49.19;94355.91;5018618;28;20104;-76
2022/02/24 03:17:22;;;;;;;5.93;2.72;;;;;;;1.95;49.26;94331.59;5003212;28;20488;-76
2022/02/24 03:19:47;;;;;;;5.55;2.60;;;;;;;2.02;49.42;94358.41;5005170;28;20492;-76
2022/02/24 03:22:13;;;;;;;4.28;3.25;;;;;;;2.11;49.65;94375.31;5004313;28;20042;-76
2022/02/24 03:24:39;;;;;;;2.90;2.10;;;;;;;1.66;49.74;94328.38;5003477;28;20119;-77
2022/02/24 03:27:05;;;;;;;7.43;2.83;;;;;;;1.92;49.98;94371.44;5005783;28;20031;-76
2022/02/24 03:29:31;;;;;;;3.60;2.30;;;;;;;1.90;50.60;94384.81;4997347;28;20581;-76
2022/02/24 03:31:57;;;;;;;3.28;2.28;;;;;;;1.96;50.68;94377.78;5003353;28;20026;-76
2022/02/24 03:34:23;;;;;;;4.53;2.47;;;;;;;2.02;50.19;94379.41;5004975;28;20030;-76
2022/02/24 03:36:48;;;;;;;2.80;2.30;;;;;;;2.20;50.19;94378.31;4993446;28;20076;-75
2022/02/24 03:39:14;;;;;;;5.50;3.05;;;;;;;1.95;50.02;94352.59;5007690;28;20152;-75
2022/02/24 03:41:39;;;;;;;3.90;2.42;;;;;;;2.09;50.35;94391.31;5005102;28;20033;-75
2022/02/24 03:44:05;;;;;;;3.08;2.78;;;;;;;2.03;50.16;94389.66;5000502;28;20040;-75
2022/02/24 03:46:31;;;;;;;3.03;2.00;;;;;;;2.19;50.06;94390.63;5007866;28;20021;-77
2022/02/24 03:48:56;;;;;;;2.92;2.00;;;;;;;2.13;49.78;94390.81;5010047;28;20059;-77
2022/02/24 03:51:21;;;;;;;3.92;2.47;;;;;;;2.01;49.82;94359.47;4996991;28;20124;-77
2022/02/24 03:53:47;;;;;;;2.05;1.92;;;;;;;2.28;49.33;94391.78;5009806;28;20187;-75
2022/02/24 03:56:12;;;;;;;4.38;2.50;;;;;;;2.13;49.74;94365.38;5012154;28;20048;-76
2022/02/24 03:58:38;;;;;;;2.10;1.92;;;;;;;2.25;48.86;94388.84;5002616;28;20617;-77
2022/02/24 04:01:04;;;;;;;4.55;2.10;;;;;;;2.28;49.22;94396.22;5006480;28;20191;-77
2022/02/24 04:03:29;;;;;;;4.90;2.03;;;;;;;2.14;48.83;94393.19;5005375;28;20053;-75
2022/02/24 04:05:55;;;;;;;4.53;2.63;;;;;;;2.18;48.55;94385.63;5021705;28;20317;-76
2022/02/24 04:08:20;;;;;;;3.80;1.67;;;;;;;2.05;48.64;94365.81;5019762;28;20153;-76
2022/02/24 04:10:46;;;;;;;6.43;2.40;;;;;;;2.29;48.31;94403.06;4999801;28;20441;-76
2022/02/24 04:13:12;;;;;;;5.03;2.28;;;;;;;1.95;48.13;94342.09;5006236;28;20037;-76
2022/02/24 04:15:38;;;;;;;5.80;2.55;;;;;;;2.36;47.89;94396.56;5003519;28;20091;-75
2022/02/24 04:18:04;;;;;;;4.07;1.75;;;;;;;2.52;47.84;94403.56;5005571;28;20038;-76
2022/02/24 04:20:30;;;;;;;1.75;1.60;;;;;;;2.59;47.51;94400.75;5012291;28;20048;-76
2022/02/24 04:22:56;;;;;;;6.03;1.85;;;;;;;2.17;47.70;94371.72;5011751;28;20018;-77
2022/02/24 04:25:21;;;;;;;4.05;2.58;;;;;;;2.30;47.69;94381.84;5004555;28;20060;-76
2022/02/24 04:27:51;;;;;;;5.18;2.25;;;;;;;2.46;47.65;94406.38;5001421;28;20448;-76
2022/02/24 04:30:19;;;;;;;5.10;2.30;;;;;;;2.43;47.62;94386.69;5008782;28;20038;-77
2022/02/24 04:32:45;;;;;;;2.70;1.98;;;;;;;2.69;46.91;94415.81;5003467;28;20167;-78
2022/02/24 04:35:11;;;;;;;3.13;1.88;;;;;;;2.61;46.63;94393.41;5003364;28;20380;-77
2022/02/24 04:37:37;;;;;;;2.40;2.13;;;;;;;2.78;46.85;94416.94;5004185;28;20488;-76
2022/02/24 04:40:05;;;;;;;5.78;2.55;;;;;;;2.67;46.20;94376.66;5017615;28;20459;-76
2022/02/24 04:42:30;;;;;;;3.72;2.13;;;;;;;2.76;46.71;94416.38;5007850;28;20606;-77
2022/02/24 04:44:57;;;;;;;2.40;1.70;;;;;;;2.94;46.45;94405.50;5010157;28;20157;-76
2022/02/24 04:47:23;;;;;;;7.75;2.42;;;;;;;2.97;45.89;94394.50;5005178;28;20116;-76
2022/02/24 04:49:48;;;;;;;5.97;2.10;;;;;;;3.12;45.67;94404.34;5002325;28;20525;-76
2022/02/24 04:52:14;;;;;;;1.88;1.67;;;;;;;2.95;45.42;94393.94;5011238;28;20037;-77
2022/02/24 04:54:39;;;;;;;1.70;1.60;;;;;;;3.00;45.42;94406.34;5009348;28;20034;-77
2022/02/24 04:57:04;;;;;;;5.70;2.25;;;;;;;3.11;45.43;94427.19;5007584;28;20026;-76
2022/02/24 04:59:30;;;;;;;2.47;1.90;;;;;;;3.15;45.55;94430.91;5008538;28;20055;-76
2022/02/24 05:01:55;;;;;;;12.10;5.15;;;;;;;3.13;45.24;94427.75;4998363;28;20396;-76
2022/02/24 05:04:21;;;;;;;22.30;9.68;;;;;;;2.97;45.54;94424.19;5005891;28;20070;-77
2022/02/24 05:06:46;;;;;;;30.52;13.02;;;;;;;2.83;45.74;94416.97;5013906;28;20053;-76
2022/02/24 05:09:12;;;;;;;22.80;11.07;;;;;;;2.87;45.50;94418.84;4996515;28;20116;-76
2022/02/24 05:11:37;;;;;;;24.00;12.30;;;;;;;2.86;45.41;94425.16;5005136;28;20041;-77
2022/02/24 05:14:03;;;;;;;10.18;5.68;;;;;;;2.80;45.65;94415.63;5005044;28;20053;-76
2022/02/24 05:16:28;;;;;;;4.30;3.58;;;;;;;2.93;45.97;94448.59;5010589;28;20492;-76
2022/02/24 05:18:54;;;;;;;11.55;6.90;;;;;;;2.88;45.93;94441.47;5004012;28;20078;-76
2022/02/24 05:21:19;;;;;;;3.78;3.42;;;;;;;2.86;46.05;94442.75;4999300;28;20419;-76
2022/02/24 05:23:45;;;;;;;15.90;3.53;;;;;;;2.93;46.10;94444.13;5006253;28;20093;-77
2022/02/24 05:26:10;;;;;;;3.92;2.47;;;;;;;3.00;45.60;94433.41;4999657;28;20029;-77
2022/02/24 05:28:35;;;;;;;4.00;3.20;;;;;;;3.05;45.35;94420.31;5006793;28;20495;-76
2022/02/24 05:31:01;;;;;;;3.60;2.42;;;;;;;3.10;45.50;94433.50;5003889;28;20034;-77
2022/02/24 05:33:27;;;;;;;8.50;2.58;;;;;;;3.19;45.51;94453.00;5001088;28;20061;-76
2022/02/24 05:35:53;;;;;;;5.88;3.88;;;;;;;3.24;45.30;94458.31;5005493;28;20038;-75
2022/02/24 05:38:18;;;;;;;2.47;2.25;;;;;;;3.32;45.08;94447.34;5004140;28;20025;-76
2022/02/24 05:40:44;;;;;;;6.10;4.38;;;;;;;3.41;44.83;94450.28;5006197;28;20033;-76
2022/02/24 05:43:09;;;;;;;6.43;4.72;;;;;;;3.43;44.81;94442.16;4998136;28;20579;-77
2022/02/24 05:45:35;;;;;;;5.47;2.95;;;;;;;3.58;45.00;94460.63;5005807;28;20029;-76
2022/02/24 05:48:00;;;;;;;5.63;3.42;;;;;;;3.35;44.82;94446.03;5007350;28;20096;-76
2022/02/24 05:50:25;;;;;;;6.57;4.28;;;;;;;3.29;45.14;94429.41;5009175;28;20740;-77
2022/02/24 05:52:52;;;;;;;8.32;5.22;;;;;;;3.55;45.15;94476.94;5002110;28;20037;-76
2022/02/24 05:55:18;;;;;;;5.72;2.95;;;;;;;3.29;45.03;94463.59;5016175;28;20596;-76
2022/02/24 05:57:44;;;;;;;4.80;2.85;;;;;;;3.00;45.39;94451.00;5001103;28;20046;-77
2022/02/24 06:00:11;;;;;;;3.42;2.13;;;;;;;3.04;45.92;94463.38;5000048;28;20184;-77
2022/02/24 06:02:36;;;;;;;3.78;2.30;;;;;;;3.42;45.50;94503.69;5006366;28;20187;-77
2022/02/24 06:05:02;;;;;;;3.22;2.35;;;;;;;3.31;45.69;94479.94;4999936;28;20419;-75
2022/02/24 06:07:27;;;;;;;2.60;1.85;;;;;;;3.59;45.44;94514.84;5003171;28;20050;-76
2022/02/24 06:09:53;;;;;;;2.30;2.10;;;;;;;3.44;45.19;94483.16;5002771;28;20557;-75
2022/02/24 06:12:18;;;;;;;2.65;2.30;;;;;;;3.64;44.74;94483.31;5009330;28;20029;-77
2022/02/24 06:14:44;;;;;;;7.25;2.40;;;;;;;3.59;44.75;94499.06;5005232;28;20033;-77
2022/02/24 06:17:09;;;;;;;2.20;1.83;;;;;;;3.84;44.84;94504.50;5012401;28;20035;-75
2022/02/24 06:19:35;;;;;;;4.90;2.90;;;;;;;3.87;44.53;94500.56;5010174;28;20388;-76
2022/02/24 06:22:00;;;;;;;2.30;2.10;;;;;;;3.25;44.64;94438.88;5001201;28;20103;-76
2022/02/24 06:24:25;;;;;;;2.22;2.00;;;;;;;3.79;44.97;94526.31;4998146;28;20781;-77
2022/02/24 06:26:51;;;;;;;5.63;3.10;;;;;;;3.97;45.25;94532.19;5007945;28;20034;-77
2022/02/24 06:29:16;;;;;;;3.03;2.67;;;;;;;4.16;44.15;94523.63;4996404;28;20025;-77
2022/02/24 06:31:42;;;;;;;2.42;1.90;;;;;;;3.74;44.82;94483.38;5003807;28;20029;-76
2022/02/24 06:34:07;;;;;;;2.42;2.22;;;;;;;4.15;44.70;94522.06;5010162;28;20026;-77
2022/02/24 06:36:33;;;;;;;3.95;3.00;;;;;;;4.21;43.75;94470.97;4999678;28;20037;-76
2022/02/24 06:38:58;;;;;;;5.28;2.15;;;;;;;4.76;43.38;94521.53;5003719;28;20062;-77
2022/02/24 06:41:27;;;;;;;3.60;1.95;;;;;;;4.87;42.75;94525.78;4999732;28;20033;-76
2022/02/24 06:43:53;;;;;;;2.78;2.17;;;;;;;4.85;42.31;94517.34;5002167;28;20021;-76
2022/02/24 06:46:18;;;;;;;4.43;2.28;;;;;;;4.94;41.70;94495.47;5006087;28;20029;-76
2022/02/24 06:48:45;;;;;;;5.80;2.65;;;;;;;4.80;41.56;94512.03;5010489;28;20060;-76
2022/02/24 06:51:11;;;;;;;6.07;2.45;;;;;;;4.20;42.49;94495.75;4997368;28;20173;-76
2022/02/24 06:53:37;;;;;;;6.90;2.35;;;;;;;4.57;42.94;94526.47;5007371;28;20037;-76
2022/02/24 06:56:03;;;;;;;4.30;2.15;;;;;;;4.59;42.38;94508.59;5000114;28;20029;-76
2022/02/24 06:58:28;;;;;;;5.45;2.53;;;;;;;5.14;41.64;94529.78;5003318;28;20029;-76
2022/02/24 07:00:54;;;;;;;5.35;2.40;;;;;;;5.08;41.07;94501.84;5000059;28;20522;-77
2022/02/24 07:03:19;;;;;;;3.38;2.05;;;;;;;5.04;41.67;94513.94;5000977;28;20095;-76
2022/02/24 07:05:44;;;;;;;2.78;1.98;;;;;;;5.20;41.14;94498.94;5001962;28;20547;-76
2022/02/24 07:08:10;;;;;;;8.85;2.47;;;;;;;5.01;41.08;94466.22;5008394;28;20150;-76
2022/02/24 07:10:35;;;;;;;2.78;2.20;;;;;;;5.60;41.29;94529.84;5006130;28;20106;-76
2022/02/24 07:13:00;;;;;;;3.13;1.80;;;;;;;5.74;40.65;94530.88;5006082;28;20370;-76
2022/02/24 07:15:26;;;;;;;5.30;2.30;;;;;;;5.23;41.26;94526.66;5001127;28;20032;-76
2022/02/24 07:17:52;;;;;;;2.47;2.05;;;;;;;5.70;39.77;94529.84;4998291;28;20033;-76
2022/02/24 07:20:18;;;;;;;7.82;2.50;;;;;;;5.32;40.38;94533.00;5018762;28;20049;-78
2022/02/24 07:22:44;;;;;;;6.30;1.95;;;;;;;5.53;40.37;94510.81;5004956;28;20037;-77
2022/02/24 07:25:12;;;;;;;17.08;6.45;;;;;;;6.02;39.26;94531.41;5004038;28;20575;-78
2022/02/24 07:27:38;;;;;;;6.07;2.65;;;;;;;6.02;38.72;94531.41;5002364;28;20064;-79
2022/02/24 07:30:05;;;;;;;5.03;2.10;;;;;;;5.68;39.04;94536.41;5003821;28;20033;-77
2022/02/24 07:32:31;;;;;;;4.38;2.22;;;;;;;5.26;40.70;94534.03;5004170;28;20065;-78
2022/02/24 07:34:57;;;;;;;5.13;1.98;;;;;;;4.57;41.05;94510.66;5005115;28;20203;-77
2022/02/24 07:37:23;;;;;;;5.15;2.78;;;;;;;4.68;40.44;94523.63;4999537;28;20374;-78
2022/02/24 07:39:48;;;;;;;7.13;3.00;;;;;;;4.75;41.17;94541.03;5003003;28;20038;-77
2022/02/24 07:42:17;;;;;;;4.95;1.85;;;;;;;4.87;41.06;94513.41;5004708;28;20113;-78
2022/02/24 07:44:43;;;;;;;7.97;2.45;;;;;;;5.22;40.85;94544.31;4999359;28;20505;-78
2022/02/24 07:47:08;;;;;;;3.03;2.30;;;;;;;5.32;40.42;94533.00;5000588;28;20521;-77
2022/02/24 07:49:34;;;;;;;7.03;3.47;;;;;;;4.86;41.63;94492.56;5004354;28;20575;-76
2022/02/24 07:51:59;;;;;;;3.13;2.30;;;;;;;5.21;40.31;94518.19;5006377;28;20034;-77
2022/02/24 07:54:25;;;;;;;7.80;2.17;;;;;;;5.35;40.02;94529.81;5005764;28;20453;-77
2022/02/24 07:56:50;;;;;;;5.90;3.70;;;;;;;5.32;39.61;94540.91;5002341;28;20041;-76
2022/02/24 07:59:16;;;;;;;4.45;3.60;;;;;;;5.05;40.73;94539.28;5006537;28;20030;-78
2022/02/24 08:01:42;;;;;;;5.43;3.25;;;;;;;5.00;40.57;94547.16;5001522;28;20388;-77
2022/02/24 08:04:08;;;;;;;5.35;2.58;;;;;;;4.83;40.81;94537.91;5001121;28;20129;-77
2022/02/24 08:06:34;;;;;;;4.78;2.08;;;;;;;4.66;41.01;94525.72;5001101;28;20139;-77
2022/02/24 08:09:00;;;;;;;4.30;2.55;;;;;;;4.73;40.90;94535.22;5001174;28;20152;-76
2022/02/24 08:11:25;;;;;;;7.28;1.90;;;;;;;4.60;40.64;94516.19;5001455;28;20281;-78
2022/02/24 08:13:51;;;;;;;5.38;2.28;;;;;;;4.92;41.21;94534.50;5002969;28;20491;-77
2022/02/24 08:16:16;;;;;;;7.00;2.70;;;;;;;5.06;40.45;94546.13;5004487;28;20409;-77
2022/02/24 08:18:42;;;;;;;4.75;3.03;;;;;;;5.43;40.30;94538.00;5004886;28;20033;-78
2022/02/24 08:21:07;;;;;;;6.97;2.30;;;;;;;5.46;39.67;94541.97;4999126;28;20042;-77
2022/02/24 08:23:33;;;;;;;2.17;1.98;;;;;;;5.21;40.40;94541.94;5005114;28;20296;-77
2022/02/24 08:25:58;;;;;;;3.60;1.88;;;;;;;5.22;40.00;94517.16;5002127;28;20112;-78
2022/02/24 08:28:24;;;;;;;2.03;1.88;;;;;;;5.42;39.94;94543.56;5000656;28;20117;-77
2022/02/24 08:30:49;;;;;;;2.63;1.75;;;;;;;5.71;39.84;94541.97;5003349;28;20034;-78
2022/02/24 08:33:14;;;;;;;3.83;2.13;;;;;;;5.63;39.77;94542.50;4997702;28;20660;-77
2022/02/24 08:35:40;;;;;;;2.55;1.90;;;;;;;5.75;38.79;94544.88;5002381;28;20041;-78
2022/02/24 08:38:05;;;;;;;3.85;2.40;;;;;;;5.24;39.69;94547.47;5004913;28;20056;-78
2022/02/24 08:40:32;;;;;;;4.95;1.90;;;;;;;5.10;39.95;94549.03;5004728;28;20030;-78
2022/02/24 08:42:59;;;;;;;3.05;2.00;;;;;;;4.77;40.06;94510.72;5012199;28;20050;-78
2022/02/24 08:45:24;;;;;;;8.18;2.88;;;;;;;4.86;40.68;94547.91;5000508;28;20083;-78
2022/02/24 08:47:51;;;;;;;3.05;2.33;;;;;;;5.13;40.04;94549.31;5002379;28;20041;-77
2022/02/24 08:50:18;;;;;;;2.90;2.10;;;;;;;5.32;39.64;94539.06;4999564;28;20127;-77
2022/02/24 08:52:43;;;;;;;7.40;2.03;;;;;;;5.30;40.17;94535.09;5007251;28;20025;-77
2022/02/24 08:55:09;;;;;;;1.90;1.40;;;;;;;5.40;40.20;94540.38;5006138;28;20041;-79
2022/02/24 08:57:34;;;;;;;2.95;2.05;;;;;;;5.38;39.66;94521.41;5005805;28;20579;-78
2022/02/24 09:00:00;;;;;;;6.60;2.72;;;;;;;4.93;40.72;94536.09;5004579;28;21061;-77
2022/02/24 09:02:25;;;;;;;6.72;2.75;;;;;;;4.06;42.30;94533.31;5009399;28;20552;-76
2022/02/24 09:04:50;;;;;;;6.55;2.83;;;;;;;3.69;42.55;94484.13;5006002;28;20037;-78
2022/02/24 09:07:16;;;;;;;5.40;2.20;;;;;;;4.56;41.56;94530.16;5008888;28;20054;-78
2022/02/24 09:09:42;;;;;;;1.95;1.58;;;;;;;4.61;41.67;94525.69;5007987;28;20492;-78
2022/02/24 09:12:08;;;;;;;3.55;2.10;;;;;;;4.06;42.85;94520.16;5005972;28;20041;-77
2022/02/24 09:14:35;;;;;;;10.30;4.32;;;;;;;3.61;43.76;94528.53;5008010;28;20044;-76
2022/02/24 09:17:01;;;;;;;3.13;1.88;;;;;;;3.06;44.99;94527.03;5006741;28;20071;-77
2022/02/24 09:19:26;;;;;;;2.60;1.80;;;;;;;3.45;44.95;94546.03;5003481;28;20408;-77
2022/02/24 09:21:53;;;;;;;3.97;2.72;;;;;;;2.98;46.10;94543.25;5005971;28;20144;-78
2022/02/24 09:24:19;;;;;;;3.47;2.55;;;;;;;2.64;46.95;94526.84;5005598;28;20037;-77
2022/02/24 09:26:44;;;;;;;9.18;2.30;;;;;;;2.49;47.65;94548.50;5015248;28;20092;-77
2022/02/24 09:29:11;;;;;;;3.75;2.25;;;;;;;2.50;48.40;94539.53;5003562;28;20455;-77
2022/02/24 09:31:36;;;;;;;8.23;2.78;;;;;;;2.16;49.58;94548.56;5005752;28;20120;-77
2022/02/24 09:34:02;;;;;;;3.85;2.38;;;;;;;2.35;50.40;94551.72;5005049;28;20034;-77
2022/02/24 09:36:28;;;;;;;2.25;2.05;;;;;;;2.30;52.04;94549.81;5004699;28;20049;-78
2022/02/24 09:38:53;;;;;;;3.47;2.30;;;;;;;2.04;53.22;94561.81;5004472;28;20199;-77
2022/02/24 09:41:23;;;;;;;3.55;2.58;;;;;;;2.22;53.41;94558.09;5002942;28;20030;-78
2022/02/24 09:43:49;;;;;;;3.65;2.15;;;;;;;2.03;53.06;94533.19;5017207;28;20145;-77
2022/02/24 09:46:14;;;;;;;5.95;3.25;;;;;;;1.92;53.22;94527.00;5004113;28;20094;-77
2022/02/24 09:48:42;;;;;;;7.47;3.08;;;;;;;2.25;53.40;94556.84;5007437;28;20037;-78
2022/02/24 09:51:14;;;;;;;4.13;1.98;;;;;;;2.32;53.51;94552.19;5007366;28;20091;-78
2022/02/24 09:53:44;;;;;;;2.35;1.83;;;;;;;2.34;53.28;94548.28;5006429;28;20547;-77
2022/02/24 09:56:19;;;;;;;1.80;1.65;;;;;;;2.33;53.16;94543.28;5021296;28;20769;-76
2022/02/24 09:58:46;;;;;;;2.38;1.77;;;;;;;2.81;52.39;94526.75;5004677;28;20034;-77
2022/02/24 10:01:14;;;;;;;3.25;2.03;;;;;;;2.77;52.33;94528.31;5006274;28;20042;-77
2022/02/24 10:03:46;;;;;;;1.98;1.63;;;;;;;3.27;51.94;94533.25;4999650;28;20424;-78
2022/02/24 10:06:13;;;;;;;1.60;1.40;;;;;;;3.25;51.47;94530.88;5002924;28;20463;-77
2022/02/24 10:08:40;;;;;;;1.83;1.73;;;;;;;3.23;50.99;94525.06;5003600;28;20041;-77
2022/02/24 10:11:19;;;;;;;2.17;1.75;;;;;;;3.33;51.05;94533.03;4996826;28;20037;-77
2022/02/24 10:14:01;;;;;;;1.42;1.33;;;;;;;3.49;51.18;94517.38;5004151;28;20404;-77
2022/02/24 10:16:28;;;;;;;2.58;1.40;;;;;;;3.26;50.74;94484.34;5003330;28;20041;-77
2022/02/24 10:18:54;;;;;;;3.85;1.50;;;;;;;3.35;50.98;94515.19;5007129;28;20038;-77
2022/02/24 10:21:20;;;;;;;2.78;1.90;;;;;;;3.04;50.37;94438.97;5006023;28;20037;-78
2022/02/24 10:23:48;;;;;;;2.35;1.80;;;;;;;3.35;50.26;94475.75;5008959;28;20240;-77
2022/02/24 10:26:15;;;;;;;2.00;1.90;;;;;;;4.50;48.88;94505.63;5000827;28;20022;-77
2022/02/24 10:28:49;;;;;;;3.17;2.10;;;;;;;4.16;49.03;94499.91;5004947;28;20021;-78
2022/02/24 10:31:20;;;;;;;4.63;1.83;;;;;;;4.39;48.84;94492.69;5008757;28;20026;-77
2022/02/24 10:34:06;;;;;;;3.13;1.98;;;;;;;4.80;48.05;94481.22;5005884;28;20049;-78
2022/02/24 10:36:34;;;;;;;1.90;1.60;;;;;;;4.79;47.42;94487.56;5015041;28;20034;-77
2022/02/24 10:39:06;;;;;;;2.50;1.73;;;;;;;4.77;47.60;94484.38;5006462;28;20117;-76
2022/02/24 10:41:42;;;;;;;2.78;1.83;;;;;;;5.53;46.15;94477.31;4998425;28;20068;-77
2022/02/24 10:44:12;;;;;;;1.55;1.40;;;;;;;4.94;45.29;94478.91;5007150;28;21095;-77
2022/02/24 10:46:37;;;;;;;2.70;1.70;;;;;;;3.96;46.29;94484.03;4999843;28;20042;-77
2022/02/24 10:49:03;;;;;;;2.10;1.73;;;;;;;3.92;46.86;94482.94;5009685;28;20112;-76
2022/02/24 10:51:34;;;;;;;1.60;1.30;;;;;;;3.95;46.69;94465.88;4994623;28;21577;-78
2022/02/24 10:54:11;;;;;;;4.65;1.58;;;;;;;3.96;46.72;94463.00;5000499;28;20041;-77
2022/02/24 10:56:42;;;;;;;1.85;1.52;;;;;;;4.86;46.52;94467.00;5015139;28;20091;-78
2022/02/24 10:59:09;;;;;;;1.90;1.40;;;;;;;5.38;45.66;94466.78;5011527;28;20529;-77
2022/02/24 11:01:35;;;;;;;1.60;1.50;;;;;;;5.64;44.53;94472.81;5003754;28;20492;-77
2022/02/24 11:04:03;;;;;;;1.30;1.20;;;;;;;5.72;43.33;94467.03;5007274;28;20060;-77
2022/02/24 11:06:35;;;;;;;2.25;1.40;;;;;;;5.85;43.71;94463.84;5006826;28;20037;-78
2022/02/24 11:09:03;;;;;;;3.15;2.00;;;;;;;5.78;43.54;94465.94;4998928;28;20238;-78
2022/02/24 11:11:35;;;;;;;2.38;1.48;;;;;;;5.36;44.04;94450.44;5003954;28;20400;-78
2022/02/24 11:14:03;;;;;;;2.70;1.40;;;;;;;4.42;45.34;94460.56;5004605;28;20036;-77
2022/02/24 11:16:29;;;;;;;2.80;1.67;;;;;;;4.40;45.77;94455.56;5002422;28;20069;-78
2022/02/24 11:18:57;;;;;;;3.72;1.95;;;;;;;4.13;45.61;94447.78;5004138;28;20042;-77
2022/02/24 11:21:24;;;;;;;4.35;1.88;;;;;;;3.96;46.79;94441.94;5019183;28;20794;-78
2022/02/24 11:23:51;;;;;;;2.00;1.67;;;;;;;3.78;47.14;94444.97;4998247;28;20103;-77
2022/02/24 11:26:22;;;;;;;4.70;1.70;;;;;;;3.82;47.17;94438.16;5003785;28;20136;-77
2022/02/24 11:28:57;;;;;;;7.38;1.85;;;;;;;3.83;46.86;94437.91;4999217;28;20140;-77
2022/02/24 11:31:54;;;;;;;1.58;1.48;;;;;;;4.06;46.73;94431.44;5007328;28;20033;-76
2022/02/24 11:34:56;;;;;;;2.00;1.50;;;;;;;4.29;46.79;94440.75;5005632;28;20137;-77
2022/02/24 11:37:33;;;;;;;6.30;2.00;;;;;;;3.63;45.52;94358.09;5002630;28;20378;-77